createdAt,value
2019-04-05T00:00:45.835Z,83.90
2019-04-05T00:03:15.678Z,83.80
2019-04-05T00:05:45.450Z,83.80
2019-04-05T00:08:15.005Z,83.30
2019-04-05T00:10:44.424Z,84.00
2019-04-05T00:13:14.115Z,84.00
2019-04-05T00:15:43.567Z,83.80
2019-04-05T00:18:13.037Z,84.30
2019-04-05T00:23:28.432Z,84.40
2019-04-05T00:25:58.467Z,84.50
2019-04-05T00:28:28.250Z,84.60
2019-04-05T00:30:59.597Z,84.30
2019-04-05T00:33:29.431Z,84.80
2019-04-05T00:35:59.693Z,84.80
2019-04-05T00:38:29.911Z,84.90
2019-04-05T00:40:59.360Z,84.60
2019-04-05T00:43:29.299Z,84.90
2019-04-05T00:46:03.950Z,85.00
2019-04-05T00:48:38.532Z,85.20
2019-04-05T00:51:09.086Z,85.30
2019-04-05T00:53:46.467Z,85.50
2019-04-05T00:56:15.882Z,85.60
2019-04-05T00:58:46.182Z,85.60
2019-04-05T01:01:17.756Z,85.80
2019-04-05T01:03:47.492Z,85.90
2019-04-05T01:06:17.355Z,86.00
2019-04-05T01:08:47.683Z,85.70
2019-04-05T01:11:17.390Z,86.00
2019-04-05T01:13:48.553Z,86.10
2019-04-05T01:16:26.027Z,86.00
2019-04-05T01:18:56.936Z,86.10
2019-04-05T01:21:29.514Z,86.40
2019-04-05T01:24:03.218Z,86.50
2019-04-05T01:26:37.300Z,86.60
2019-04-05T01:29:09.166Z,86.80
2019-04-05T01:31:39.610Z,87.60
2019-04-05T01:34:09.343Z,87.20
2019-04-05T01:36:39.029Z,87.20
2019-04-05T01:39:09.285Z,87.20
2019-04-05T01:41:39.983Z,87.30
2019-04-05T01:44:15.163Z,87.50
2019-04-05T01:47:08.005Z,87.50
2019-04-05T01:49:38.117Z,87.70
2019-04-05T01:52:08.285Z,87.60
2019-04-05T01:54:38.081Z,87.80
2019-04-05T01:57:12.448Z,88.60
2019-04-05T01:59:42.617Z,87.90
2019-04-05T02:02:14.030Z,88.90
2019-04-05T02:04:43.557Z,88.20
2019-04-05T02:07:13.317Z,88.30
2019-04-05T02:09:43.032Z,88.10
2019-04-05T02:12:12.886Z,87.80
2019-04-05T02:14:42.544Z,88.40
2019-04-05T02:17:12.002Z,88.50
2019-04-05T02:19:43.853Z,88.70
2019-04-05T02:22:14.642Z,88.30
2019-04-05T02:24:47.726Z,88.60
2019-04-05T02:27:18.966Z,88.20
2019-04-05T02:29:48.399Z,89.30
2019-04-05T02:32:58.453Z,88.40
2019-04-05T02:35:28.236Z,87.70
2019-04-05T02:37:57.891Z,88.40
2019-04-05T02:40:35.174Z,87.50
2019-04-05T02:43:07.775Z,88.20
2019-04-05T02:45:40.102Z,88.10
2019-04-05T02:48:14.466Z,88.60
2019-04-05T02:50:48.431Z,88.60
2019-04-05T02:53:23.157Z,88.50
2019-04-05T02:55:53.722Z,88.90
2019-04-05T02:58:24.076Z,88.80
2019-04-05T03:00:54.815Z,88.70
2019-04-05T03:03:24.646Z,88.80
2019-04-05T03:05:55.450Z,89.10
2019-04-05T03:08:28.912Z,89.30
2019-04-05T03:11:19.784Z,89.40
2019-04-05T03:13:53.341Z,88.40
2019-04-05T03:16:40.280Z,89.20
2019-04-05T03:19:04.580Z,89.50
2019-04-05T03:21:38.482Z,89.20
2019-04-05T03:24:32.137Z,88.80
2019-04-05T03:27:18.562Z,89.90
2019-04-05T03:29:49.827Z,89.70
2019-04-05T03:32:21.246Z,90.00
2019-04-05T03:34:52.447Z,89.80
2019-04-05T03:37:22.848Z,89.50
2019-04-05T03:39:52.666Z,90.00
2019-04-05T03:42:22.424Z,89.50
2019-04-05T03:44:52.214Z,89.80
2019-04-05T03:47:24.249Z,90.00
2019-04-05T03:49:54.814Z,90.10
2019-04-05T03:52:24.682Z,90.00
2019-04-05T03:54:54.822Z,90.00
2019-04-05T03:57:24.937Z,89.70
2019-04-05T03:59:55.345Z,89.30
2019-04-05T04:02:27.794Z,90.00
2019-04-05T04:04:58.480Z,90.30
2019-04-05T04:07:31.125Z,90.30
2019-04-05T04:10:02.218Z,90.30
2019-04-05T04:12:31.661Z,90.50
2019-04-05T04:15:14.122Z,90.70
2019-04-05T04:17:45.262Z,90.80
2019-04-05T04:20:46.662Z,91.00
2019-04-05T04:23:16.799Z,91.20
2019-04-05T04:25:47.737Z,91.40
2019-04-05T04:28:22.134Z,91.50
2019-04-05T04:30:52.151Z,91.50
2019-04-05T04:33:22.800Z,91.60
2019-04-05T04:35:53.546Z,91.80
2019-04-05T04:38:24.056Z,91.90
2019-04-05T04:40:55.099Z,92.10
2019-04-05T04:43:43.176Z,92.20
2019-04-05T04:46:13.577Z,92.20
2019-04-05T04:48:46.187Z,92.00
2019-04-05T04:51:16.659Z,92.20
2019-04-05T04:53:55.122Z,92.00
2019-04-05T04:56:25.320Z,92.00
2019-04-05T04:58:55.356Z,92.30
2019-04-05T05:01:25.650Z,92.30
2019-04-05T05:03:57.487Z,92.40
2019-04-05T05:06:30.976Z,92.20
2019-04-05T05:09:00.796Z,92.30
2019-04-05T05:11:31.152Z,92.20
2019-04-05T05:14:01.999Z,92.10
2019-04-05T05:16:32.999Z,92.10
2019-04-05T05:19:03.138Z,92.50
2019-04-05T05:21:36.154Z,92.70
2019-04-05T05:26:44.833Z,93.10
2019-04-05T05:29:15.063Z,93.30
2019-04-05T05:31:44.479Z,93.40
2019-04-05T05:34:14.144Z,92.50
2019-04-05T05:36:43.905Z,92.80
2019-04-05T05:39:13.491Z,93.00
2019-04-05T05:41:43.026Z,92.70
2019-04-05T05:44:12.458Z,91.20
2019-04-05T05:46:41.856Z,92.00
2019-04-05T05:49:11.362Z,91.80
2019-04-05T05:51:41.610Z,91.10
2019-04-05T05:54:11.189Z,91.10
2019-04-05T05:56:40.715Z,90.90
2019-04-05T05:59:10.104Z,90.70
2019-04-05T06:01:39.894Z,90.20
2019-04-05T06:04:09.260Z,89.20
2019-04-05T06:06:38.602Z,88.80
2019-04-05T06:09:09.554Z,87.80
2019-04-05T06:11:39.090Z,86.60
2019-04-05T06:14:08.458Z,84.10
2019-04-05T06:16:46.333Z,85.00
2019-04-05T06:19:09.185Z,84.10
2019-04-05T06:21:38.721Z,82.10
2019-04-05T06:24:08.202Z,82.80
2019-04-05T06:26:37.767Z,82.10
2019-04-05T06:29:07.281Z,81.00
2019-04-05T06:31:36.643Z,80.30
2019-04-05T06:34:06.120Z,80.50
2019-04-05T06:36:37.589Z,80.10
2019-04-05T06:39:08.205Z,78.20
2019-04-05T06:41:37.627Z,77.80
2019-04-05T06:44:08.272Z,77.00
2019-04-05T06:46:37.707Z,76.80
2019-04-05T06:49:07.125Z,76.70
2019-04-05T06:51:36.616Z,75.80
2019-04-05T06:54:06.205Z,75.00
2019-04-05T06:56:35.774Z,74.40
2019-04-05T06:59:05.459Z,74.50
2019-04-05T07:01:35.010Z,73.50
2019-04-05T07:04:04.641Z,72.00
2019-04-05T07:06:34.200Z,71.40
2019-04-05T07:09:06.138Z,70.20
2019-04-05T07:11:35.590Z,71.00
2019-04-05T07:14:05.062Z,70.70
2019-04-05T07:16:34.397Z,70.00
2019-04-05T07:19:04.941Z,68.80
2019-04-05T07:21:34.545Z,68.70
2019-04-05T07:24:03.882Z,67.40
2019-04-05T07:26:33.279Z,66.90
2019-04-05T07:29:04.601Z,66.60
2019-04-05T07:31:33.782Z,67.20
2019-04-05T07:34:03.372Z,66.30
2019-04-05T07:36:32.794Z,64.10
2019-04-05T07:39:02.219Z,65.10
2019-04-05T07:41:31.974Z,64.40
2019-04-05T07:44:01.582Z,64.10
2019-04-05T07:46:30.942Z,63.90
2019-04-05T07:49:00.497Z,62.60
2019-04-05T07:51:29.892Z,62.60
2019-04-05T07:53:59.401Z,62.20
2019-04-05T07:56:29.806Z,62.30
2019-04-05T07:58:59.187Z,61.30
2019-04-05T08:01:28.739Z,60.20
2019-04-05T08:03:58.329Z,59.30
2019-04-05T08:06:30.379Z,59.10
2019-04-05T08:09:13.747Z,62.60
2019-04-05T08:11:45.656Z,59.80
2019-04-05T08:14:18.145Z,59.90
2019-04-05T08:16:48.232Z,59.70
2019-04-05T08:19:17.603Z,58.10
2019-04-05T08:21:46.987Z,59.70
2019-04-05T08:24:16.372Z,59.60
2019-04-05T08:26:45.913Z,58.10
2019-04-05T08:29:15.324Z,59.00
2019-04-05T08:31:44.693Z,58.40
2019-04-05T08:34:15.413Z,58.00
2019-04-05T08:36:45.208Z,58.00
2019-04-05T08:39:14.972Z,58.10
2019-04-05T08:41:45.911Z,58.90
2019-04-05T08:44:15.320Z,59.30
2019-04-05T08:46:44.716Z,56.90
2019-04-05T08:49:14.233Z,57.90
2019-04-05T08:51:43.806Z,56.70
2019-04-05T08:54:13.280Z,56.40
2019-04-05T08:56:42.733Z,57.10
2019-04-05T08:59:12.296Z,57.60
2019-04-05T09:01:41.910Z,56.40
2019-04-05T09:04:11.464Z,58.00
2019-04-05T09:06:41.143Z,56.20
2019-04-05T09:09:10.742Z,56.10
2019-04-05T09:11:40.174Z,56.40
2019-04-05T09:14:10.086Z,57.30
2019-04-05T09:16:39.554Z,57.30
2019-04-05T09:19:09.003Z,56.40
2019-04-05T09:21:40.530Z,58.10
2019-04-05T09:24:09.437Z,56.60
2019-04-05T09:26:38.829Z,55.70
2019-04-05T09:29:10.357Z,56.80
2019-04-05T09:31:39.697Z,55.70
2019-04-05T09:34:09.120Z,56.10
2019-04-05T09:36:38.710Z,56.90
2019-04-05T09:39:15.245Z,55.90
2019-04-05T09:41:42.485Z,55.10
2019-04-05T09:44:12.016Z,56.20
2019-04-05T09:46:48.116Z,54.90
2019-04-05T09:49:15.814Z,57.00
2019-04-05T09:51:47.388Z,55.10
2019-04-05T09:54:17.013Z,54.70
2019-04-05T09:56:46.408Z,57.00
2019-04-05T09:59:15.983Z,56.80
2019-04-05T10:01:45.393Z,57.70
2019-04-05T10:04:17.250Z,54.60
2019-04-05T10:06:48.494Z,56.10
2019-04-05T10:09:17.820Z,54.90
2019-04-05T10:11:47.467Z,53.90
2019-04-05T10:14:16.800Z,55.60
2019-04-05T10:16:46.144Z,54.70
2019-04-05T10:19:15.553Z,55.30
2019-04-05T10:21:46.428Z,54.00
2019-04-05T10:24:15.833Z,53.90
2019-04-05T10:26:45.131Z,53.60
2019-04-05T10:29:16.025Z,54.60
2019-04-05T10:31:45.556Z,53.30
2019-04-05T10:34:14.962Z,53.60
2019-04-05T10:36:47.286Z,56.90
2019-04-05T10:39:16.719Z,52.70
2019-04-05T10:41:46.236Z,57.10
2019-04-05T10:44:16.836Z,56.40
2019-04-05T10:46:46.382Z,56.90
2019-04-05T10:49:15.799Z,57.10
2019-04-05T10:51:45.187Z,54.50
2019-04-05T10:54:14.607Z,52.70
2019-04-05T10:56:43.921Z,53.00
2019-04-05T10:59:13.472Z,55.60
2019-04-05T11:01:42.895Z,55.30
2019-04-05T11:04:12.585Z,52.90
2019-04-05T11:06:42.113Z,54.90
2019-04-05T11:09:11.938Z,53.10
2019-04-05T11:11:41.904Z,53.10
2019-04-05T11:14:13.873Z,52.40
2019-04-05T11:16:42.561Z,54.20
2019-04-05T11:19:15.043Z,54.80
2019-04-05T11:21:47.922Z,53.30
2019-04-05T11:24:15.738Z,52.70
2019-04-05T11:26:45.337Z,51.20
2019-04-05T11:29:16.631Z,53.00
2019-04-05T11:31:56.338Z,53.10
2019-04-05T11:34:17.777Z,53.40
2019-04-05T11:36:47.543Z,52.10
2019-04-05T11:39:17.752Z,53.70
2019-04-05T11:41:50.268Z,52.50
2019-04-05T11:44:19.907Z,52.90
2019-04-05T11:46:49.852Z,51.70
2019-04-05T11:49:19.623Z,52.60
2019-04-05T11:51:49.779Z,52.70
2019-04-05T11:54:19.529Z,53.30
2019-04-05T11:56:49.126Z,54.50
2019-04-05T11:59:19.586Z,53.90
2019-04-05T12:02:17.327Z,53.10
2019-04-05T12:04:46.797Z,52.60
2019-04-05T12:07:16.339Z,53.20
2019-04-05T12:09:46.026Z,51.70
2019-04-05T12:12:16.917Z,50.60
2019-04-05T12:14:46.672Z,52.50
2019-04-05T12:17:16.348Z,50.10
2019-04-05T12:19:46.408Z,50.30
2019-04-05T12:22:15.872Z,50.40
2019-04-05T12:24:47.637Z,52.10
2019-04-05T12:27:17.000Z,51.70
2019-04-05T12:29:46.476Z,52.20
2019-04-05T12:32:18.734Z,52.20
2019-04-05T12:34:49.516Z,52.50
2019-04-05T12:37:21.862Z,51.90
2019-04-05T12:39:50.755Z,49.90
2019-04-05T12:42:20.201Z,48.50
2019-04-05T12:44:49.648Z,51.60
2019-04-05T12:47:19.313Z,47.60
2019-04-05T12:49:48.776Z,47.10
2019-04-05T12:52:22.990Z,47.60
2019-04-05T12:54:53.927Z,50.80
2019-04-05T12:57:20.769Z,51.80
2019-04-05T12:59:51.374Z,47.60
2019-04-05T13:02:32.970Z,51.20
2019-04-05T13:04:52.331Z,48.60
2019-04-05T13:07:22.778Z,52.70
2019-04-05T13:09:55.064Z,51.20
2019-04-05T13:12:26.156Z,52.80
2019-04-05T13:15:10.944Z,52.00
2019-04-05T13:17:27.186Z,54.60
2019-04-05T13:19:58.401Z,52.30
2019-04-05T13:22:27.731Z,53.10
2019-04-05T13:24:57.224Z,53.50
2019-04-05T13:27:26.650Z,53.80
2019-04-05T13:29:56.104Z,53.10
2019-04-05T13:32:25.738Z,51.60
2019-04-05T13:34:55.705Z,54.40
2019-04-05T13:37:26.183Z,53.10
2019-04-05T13:39:57.682Z,51.80
2019-04-05T13:42:31.110Z,53.30
2019-04-05T13:44:59.671Z,53.80
2019-04-05T13:47:28.974Z,51.00
2019-04-05T13:49:58.530Z,49.90
2019-04-05T13:52:27.985Z,50.70
2019-04-05T13:54:57.468Z,50.70
2019-04-05T13:57:28.509Z,52.60
2019-04-05T13:59:58.469Z,51.30
2019-04-05T14:02:27.935Z,51.50
2019-04-05T14:04:57.231Z,52.10
2019-04-05T14:07:29.592Z,53.50
2019-04-05T14:09:59.119Z,54.20
2019-04-05T14:12:31.201Z,54.30
2019-04-05T14:15:00.028Z,54.80
2019-04-05T14:17:29.671Z,54.80
2019-04-05T14:19:59.338Z,57.20
2019-04-05T14:22:28.802Z,57.30
2019-04-05T14:24:58.301Z,57.30
2019-04-05T14:27:27.778Z,57.70
2019-04-05T14:29:57.410Z,57.50
2019-04-05T14:32:27.006Z,57.70
2019-04-05T14:34:56.546Z,57.50
2019-04-05T14:37:27.211Z,57.60
2019-04-05T14:39:56.715Z,56.50
2019-04-05T14:42:26.277Z,57.00
2019-04-05T14:44:55.988Z,56.40
2019-04-05T14:47:28.245Z,56.20
2019-04-05T14:49:58.286Z,56.50
2019-04-05T14:52:31.190Z,57.10
2019-04-05T14:55:00.667Z,56.90
2019-04-05T14:57:30.135Z,56.90
2019-04-05T14:59:59.534Z,57.40
2019-04-05T15:02:29.094Z,57.10
2019-04-05T15:04:58.751Z,57.30
2019-04-05T15:07:28.207Z,57.00
2019-04-05T15:09:57.624Z,56.90
2019-04-05T15:12:29.166Z,56.90
2019-04-05T15:14:58.217Z,56.90
2019-04-05T15:17:27.643Z,57.00
2019-04-05T15:19:57.048Z,57.20
2019-04-05T15:22:27.785Z,56.70
2019-04-05T15:24:57.258Z,56.70
2019-04-05T15:27:26.768Z,57.00
2019-04-05T15:29:56.397Z,56.90
2019-04-05T15:32:26.662Z,56.80
2019-04-05T15:34:56.532Z,56.90
2019-04-05T15:37:27.134Z,56.90
2019-04-05T15:39:56.511Z,57.00
2019-04-05T15:42:27.816Z,57.00
2019-04-05T15:44:57.287Z,56.70
2019-04-05T15:47:26.887Z,57.20
2019-04-05T15:49:56.481Z,57.10
2019-04-05T15:52:31.208Z,57.20
2019-04-05T15:54:58.051Z,56.60
2019-04-05T15:57:27.536Z,55.70
2019-04-05T15:59:57.314Z,55.70
2019-04-05T16:02:26.874Z,55.90
2019-04-05T16:04:56.581Z,56.40
2019-04-05T16:07:26.416Z,56.80
2019-04-05T16:09:58.964Z,56.80
2019-04-05T16:12:28.750Z,57.10
2019-04-05T16:14:58.549Z,57.30
2019-04-05T16:17:28.086Z,58.30
2019-04-05T16:19:57.666Z,58.80
2019-04-05T16:22:31.514Z,58.70
2019-04-05T16:24:58.823Z,57.60
2019-04-05T16:27:28.187Z,58.40
2019-04-05T16:29:57.567Z,58.40
2019-04-05T16:32:26.942Z,59.20
2019-04-05T16:34:56.398Z,60.10
2019-04-05T16:37:25.899Z,61.30
2019-04-05T16:39:55.482Z,60.60
2019-04-05T16:42:24.861Z,61.00
2019-04-05T16:44:54.319Z,60.30
2019-04-05T16:47:23.875Z,60.50
2019-04-05T16:49:53.254Z,60.30
2019-04-05T16:52:22.606Z,61.00
2019-04-05T16:54:51.930Z,61.10
2019-04-05T16:57:21.372Z,61.40
2019-04-05T16:59:50.754Z,61.20
2019-04-05T17:02:20.107Z,60.50
2019-04-05T17:04:49.450Z,60.20
2019-04-05T17:07:18.855Z,60.50
2019-04-05T17:09:48.330Z,60.70
2019-04-05T17:12:17.708Z,60.10
2019-04-05T17:14:47.223Z,59.80
2019-04-05T17:17:16.720Z,60.40
2019-04-05T17:19:46.157Z,61.10
2019-04-05T17:22:15.559Z,61.50
2019-04-05T17:24:44.893Z,61.30
2019-04-05T17:27:14.639Z,61.60
2019-04-05T17:29:44.127Z,62.10
2019-04-05T17:32:13.554Z,62.10
2019-04-05T17:34:43.017Z,62.10
2019-04-05T17:37:14.999Z,61.90
2019-04-05T17:39:44.601Z,63.10
2019-04-05T17:42:14.450Z,63.50
2019-04-05T17:44:43.948Z,63.20
2019-04-05T17:47:13.452Z,63.30
2019-04-05T17:49:42.983Z,63.50
2019-04-05T17:52:13.335Z,63.80
2019-04-05T17:54:42.730Z,64.00
2019-04-05T17:57:12.231Z,64.20
2019-04-05T17:59:41.765Z,64.30
2019-04-05T18:02:11.231Z,64.60
2019-04-05T18:04:40.558Z,64.50
2019-04-05T18:07:09.984Z,64.70
2019-04-05T18:09:39.511Z,64.80
2019-04-05T18:12:09.175Z,64.60
2019-04-05T18:14:38.486Z,64.60
2019-04-05T18:17:08.203Z,64.50
2019-04-05T18:19:37.686Z,64.70
2019-04-05T18:22:07.358Z,65.30
2019-04-05T18:24:36.911Z,64.90
2019-04-05T18:27:06.248Z,65.10
2019-04-05T18:29:35.684Z,65.10
2019-04-05T18:32:12.548Z,65.00
2019-04-05T18:34:42.007Z,64.80
2019-04-05T18:37:13.568Z,64.90
2019-04-05T18:40:40.641Z,64.70
2019-04-05T18:43:10.129Z,64.90
2019-04-05T18:45:39.556Z,64.60
2019-04-05T18:48:09.525Z,64.80
2019-04-05T18:50:38.989Z,65.00
2019-04-05T18:53:10.300Z,64.90
2019-04-05T18:55:40.496Z,64.90
2019-04-05T18:58:10.298Z,65.00
2019-04-05T19:00:39.893Z,65.30
2019-04-05T19:03:09.414Z,65.30
2019-04-05T19:05:39.021Z,65.10
2019-04-05T19:08:09.055Z,65.10
2019-04-05T19:10:38.881Z,65.00
2019-04-05T19:13:08.303Z,65.20
2019-04-05T19:15:37.774Z,65.80
2019-04-05T19:18:07.345Z,65.50
2019-04-05T19:20:37.550Z,65.60
2019-04-05T19:23:06.981Z,66.10
2019-04-05T19:25:37.206Z,65.80
2019-04-05T19:28:06.648Z,65.70
2019-04-05T19:48:34.835Z,66.80
2019-04-05T19:50:48.169Z,67.00
2019-04-05T19:53:17.641Z,67.00
2019-04-05T19:55:47.085Z,67.30
2019-04-05T19:58:16.660Z,67.30
2019-04-05T20:00:46.252Z,67.80
2019-04-05T20:03:18.854Z,67.70
2019-04-05T20:05:48.283Z,68.70
2019-04-05T20:08:17.837Z,68.30
2019-04-05T20:10:47.244Z,68.30
2019-04-05T20:13:16.753Z,68.50
2019-04-05T20:15:46.273Z,69.30
2019-04-05T20:18:15.779Z,68.70
2019-04-05T20:20:47.084Z,68.50
2019-04-05T20:23:16.426Z,68.60
2019-04-05T20:25:45.821Z,68.80
2019-04-05T20:28:15.384Z,69.30
2019-04-05T20:30:44.938Z,69.10
2019-04-05T20:33:14.325Z,69.30
2019-04-05T20:35:43.978Z,69.40
2019-04-05T20:38:13.644Z,69.20
2019-04-05T20:40:43.240Z,69.80
2019-04-05T20:43:12.788Z,69.90
2019-04-05T20:45:42.332Z,70.40
2019-04-05T20:48:11.861Z,70.70
2019-04-05T20:50:41.465Z,70.90
2019-04-05T20:53:10.842Z,71.00
2019-04-05T20:55:40.245Z,71.50
2019-04-05T20:58:09.953Z,71.50
2019-04-05T21:00:40.483Z,71.30
2019-04-05T21:03:09.898Z,71.40
2019-04-05T21:05:39.267Z,71.60
2019-04-05T21:08:08.733Z,71.70
2019-04-05T21:10:38.282Z,71.90
2019-04-05T21:13:07.902Z,72.20
2019-04-05T21:15:37.512Z,72.30
2019-04-05T21:18:07.340Z,72.60
2019-04-05T21:20:40.780Z,73.10
2019-04-05T21:23:10.208Z,74.20
2019-04-05T21:25:42.045Z,73.90
2019-04-05T21:28:11.533Z,73.50
2019-04-05T21:30:40.927Z,73.80
2019-04-05T21:33:10.538Z,74.10
2019-04-05T21:35:40.003Z,74.30
2019-04-05T21:38:09.475Z,74.30
2019-04-05T21:40:40.031Z,74.50
2019-04-05T21:43:09.464Z,74.70
2019-04-05T21:45:38.983Z,75.00
2019-04-05T21:48:08.312Z,75.00
2019-04-05T21:50:37.702Z,75.10
2019-04-05T21:53:10.635Z,75.00
2019-04-05T21:55:40.420Z,75.40
2019-04-05T21:58:10.480Z,75.60
2019-04-05T22:00:48.725Z,75.90
2019-04-05T22:03:18.108Z,75.80
2019-04-05T22:05:47.763Z,76.00
2019-04-05T22:08:18.343Z,76.20
2019-04-05T22:10:49.324Z,76.30
2019-04-05T22:13:19.080Z,76.20
2019-04-05T22:15:51.123Z,76.40
2019-04-05T22:18:20.655Z,75.90
2019-04-05T22:20:50.234Z,75.90
2019-04-05T22:23:19.682Z,76.40
2019-04-05T22:25:49.272Z,76.60
2019-04-05T22:28:18.882Z,76.80
2019-04-05T22:30:48.286Z,77.10
2019-04-05T22:33:17.863Z,77.40
2019-04-05T22:35:49.888Z,77.80
2019-04-05T22:38:19.270Z,78.00
2019-04-05T22:40:48.725Z,78.10
2019-04-05T22:43:18.134Z,78.00
2019-04-05T22:45:47.602Z,78.00
2019-04-05T22:48:17.132Z,78.00
2019-04-05T22:50:46.608Z,78.00
2019-04-05T22:53:16.392Z,77.90
2019-04-05T22:55:45.797Z,78.50
2019-04-05T22:58:15.421Z,78.30
2019-04-05T23:00:44.923Z,79.00
2019-04-05T23:03:14.422Z,79.20
2019-04-05T23:05:44.029Z,79.40
2019-04-05T23:08:13.440Z,79.50
2019-04-05T23:10:42.822Z,79.70
2019-04-05T23:13:12.333Z,79.70
2019-04-05T23:15:41.799Z,79.90
2019-04-05T23:18:11.269Z,79.90
2019-04-05T23:20:41.068Z,80.20
2019-04-05T23:23:10.512Z,80.30
2019-04-05T23:25:39.895Z,80.30
2019-04-05T23:28:09.649Z,80.30
2019-04-05T23:30:39.233Z,80.70
2019-04-05T23:33:08.654Z,81.00
2019-04-05T23:35:38.444Z,81.00
2019-04-05T23:38:08.005Z,81.30
2019-04-05T23:40:37.426Z,81.60
2019-04-05T23:43:07.078Z,81.80
2019-04-05T23:45:36.902Z,82.10
2019-04-05T23:48:06.424Z,81.90
2019-04-05T23:50:36.109Z,82.40
2019-04-05T23:53:06.036Z,82.40
2019-04-05T23:55:38.775Z,82.40
2019-04-05T23:58:08.257Z,82.40
